createdAt,value
2022-09-10T00:00:39.786Z,0.00
2022-09-10T00:01:39.832Z,4.00
2022-09-10T00:02:39.822Z,4.00
2022-09-10T00:03:39.755Z,0.00
2022-09-10T00:04:39.809Z,4.00
2022-09-10T00:05:39.718Z,0.00
2022-09-10T00:06:40.719Z,0.00
2022-09-10T00:07:39.716Z,4.00
2022-09-10T00:08:39.791Z,4.00
2022-09-10T00:09:39.766Z,4.00
2022-09-10T00:10:39.687Z,4.00
2022-09-10T00:11:39.819Z,0.00
2022-09-10T00:12:39.781Z,4.00
2022-09-10T00:13:39.683Z,4.00
2022-09-10T00:14:40.587Z,4.00
2022-09-10T00:15:39.695Z,4.00
2022-09-10T00:16:39.641Z,4.00
2022-09-10T00:17:39.635Z,4.00
2022-09-10T00:18:39.790Z,4.00
2022-09-10T00:19:39.620Z,4.00
2022-09-10T00:20:39.686Z,4.00
2022-09-10T00:21:39.693Z,4.00
2022-09-10T00:22:39.598Z,0.00
2022-09-10T00:23:39.628Z,4.00
2022-09-10T00:24:39.748Z,0.00
2022-09-10T00:25:39.603Z,4.00
2022-09-10T00:26:39.905Z,4.00
2022-09-10T00:27:39.697Z,0.00
2022-09-10T00:28:39.751Z,4.00
2022-09-10T00:29:39.661Z,4.00
2022-09-10T00:30:39.558Z,4.00
2022-09-10T00:31:39.577Z,4.00
2022-09-10T00:32:39.521Z,4.00
2022-09-10T00:33:39.536Z,0.00
2022-09-10T00:34:39.514Z,4.00
2022-09-10T00:35:40.519Z,4.00
2022-09-10T00:36:39.487Z,4.00
2022-09-10T00:37:39.493Z,4.00
2022-09-10T00:38:39.666Z,4.00
2022-09-10T00:39:39.497Z,4.00
2022-09-10T00:40:39.486Z,4.00
2022-09-10T00:41:39.905Z,4.00
2022-09-10T00:42:39.902Z,4.00
2022-09-10T00:43:39.467Z,4.00
2022-09-10T00:44:39.443Z,0.00
2022-09-10T00:45:39.505Z,4.00
2022-09-10T00:46:39.422Z,0.00
2022-09-10T00:47:39.412Z,0.00
2022-09-10T00:48:39.549Z,0.00
2022-09-10T00:49:39.434Z,0.00
2022-09-10T00:50:39.464Z,0.00
2022-09-10T00:51:39.381Z,0.00
2022-09-10T00:52:40.046Z,0.00
2022-09-10T00:53:40.423Z,4.00
2022-09-10T00:54:39.375Z,4.00
2022-09-10T00:55:39.405Z,4.00
2022-09-10T00:56:39.335Z,4.00
2022-09-10T00:57:39.363Z,0.00
2022-09-10T00:58:39.488Z,0.00
2022-09-10T00:59:39.324Z,4.00
2022-09-10T01:00:39.369Z,0.00
2022-09-10T01:01:39.373Z,4.00
2022-09-10T01:02:39.281Z,4.00
2022-09-10T01:03:39.416Z,4.00
2022-09-10T01:04:39.298Z,0.00
2022-09-10T01:05:39.298Z,4.00
2022-09-10T01:06:39.244Z,0.00
2022-09-10T01:07:39.280Z,0.00
2022-09-10T01:08:39.356Z,0.00
2022-09-10T01:09:39.237Z,0.00
2022-09-10T01:10:39.287Z,0.00
2022-09-10T01:11:39.236Z,0.00
2022-09-10T01:12:39.414Z,0.00
2022-09-10T01:13:39.199Z,4.00
2022-09-10T01:14:39.185Z,4.00
2022-09-10T01:15:39.206Z,4.00
2022-09-10T01:16:39.171Z,0.00
2022-09-10T01:17:39.166Z,0.00
2022-09-10T01:18:39.916Z,0.00
2022-09-10T01:19:39.731Z,0.00
2022-09-10T01:20:39.191Z,0.00
2022-09-10T01:21:39.173Z,0.00
2022-09-10T01:22:39.151Z,4.00
2022-09-10T01:23:40.102Z,0.00
2022-09-10T01:24:39.131Z,4.00
2022-09-10T01:25:39.120Z,0.00
2022-09-10T01:26:39.143Z,0.00
2022-09-10T01:27:39.158Z,0.00
2022-09-10T01:28:39.196Z,4.00
2022-09-10T01:29:39.064Z,4.00
2022-09-10T01:30:39.091Z,4.00
2022-09-10T01:31:39.109Z,0.00
2022-09-10T01:32:39.111Z,0.00
2022-09-10T01:33:39.151Z,4.00
2022-09-10T01:34:39.024Z,0.00
2022-09-10T01:35:39.044Z,4.00
2022-09-10T01:36:39.050Z,4.00
2022-09-10T01:37:39.006Z,4.00
2022-09-10T01:38:39.098Z,4.00
2022-09-10T01:39:39.069Z,4.00
2022-09-10T01:40:39.175Z,0.00
2022-09-10T01:41:39.000Z,0.00
2022-09-10T01:42:39.042Z,0.00
2022-09-10T01:43:38.982Z,0.00
2022-09-10T01:44:39.014Z,0.00
2022-09-10T01:45:39.016Z,0.00
2022-09-10T01:46:38.941Z,4.00
2022-09-10T01:47:38.971Z,4.00
2022-09-10T01:48:39.063Z,4.00
2022-09-10T01:49:38.906Z,0.00
2022-09-10T01:50:38.956Z,4.00
2022-09-10T01:51:38.900Z,0.00
2022-09-10T01:52:38.894Z,0.00
2022-09-10T01:53:38.927Z,0.00
2022-09-10T01:54:38.874Z,0.00
2022-09-10T01:55:38.929Z,4.00
2022-09-10T01:56:38.855Z,0.00
2022-09-10T01:57:38.879Z,0.00
2022-09-10T01:58:38.972Z,0.00
2022-09-10T01:59:38.827Z,0.00
2022-09-10T02:00:38.904Z,4.00
2022-09-10T02:01:38.814Z,4.00
2022-09-10T02:02:38.802Z,0.00
2022-09-10T02:03:38.797Z,0.00
2022-09-10T02:04:38.787Z,0.00
2022-09-10T02:05:38.806Z,0.00
2022-09-10T02:06:38.774Z,4.00
2022-09-10T02:07:38.758Z,4.00
2022-09-10T02:08:39.888Z,4.00
2022-09-10T02:09:38.787Z,4.00
2022-09-10T02:10:39.614Z,4.00
2022-09-10T02:11:38.734Z,4.00
2022-09-10T02:12:38.790Z,4.00
2022-09-10T02:13:38.726Z,4.00
2022-09-10T02:14:38.726Z,4.00
2022-09-10T02:15:38.725Z,0.00
2022-09-10T02:16:38.769Z,4.00
2022-09-10T02:17:39.620Z,0.00
2022-09-10T02:18:38.735Z,0.00
2022-09-10T02:19:38.673Z,4.00
2022-09-10T02:20:38.689Z,0.00
2022-09-10T02:21:39.611Z,4.00
2022-09-10T02:22:38.671Z,4.00
2022-09-10T02:23:38.654Z,4.00
2022-09-10T02:24:38.632Z,0.00
2022-09-10T02:25:38.680Z,0.00
2022-09-10T02:26:38.683Z,0.00
2022-09-10T02:27:38.613Z,4.00
2022-09-10T02:28:38.689Z,4.00
2022-09-10T02:29:38.590Z,4.00
2022-09-10T02:30:38.586Z,4.00
2022-09-10T02:31:38.682Z,4.00
2022-09-10T02:32:38.576Z,4.00
2022-09-10T02:33:38.578Z,4.00
2022-09-10T02:34:38.554Z,4.00
2022-09-10T02:35:38.546Z,4.00
2022-09-10T02:36:38.569Z,4.00
2022-09-10T02:37:38.596Z,4.00
2022-09-10T02:38:38.626Z,4.00
2022-09-10T02:39:38.762Z,0.00
2022-09-10T02:40:38.507Z,0.00
2022-09-10T02:41:38.554Z,0.00
2022-09-10T02:42:38.491Z,0.00
2022-09-10T02:43:38.483Z,0.00
2022-09-10T02:44:38.471Z,0.00
2022-09-10T02:45:39.172Z,0.00
2022-09-10T02:46:38.463Z,0.00
2022-09-10T02:47:38.468Z,0.00
2022-09-10T02:48:38.530Z,0.00
2022-09-10T02:49:38.442Z,0.00
2022-09-10T02:50:38.430Z,0.00
2022-09-10T02:51:38.451Z,0.00
2022-09-10T02:52:38.413Z,0.00
2022-09-10T02:53:38.420Z,0.00
2022-09-10T02:54:38.395Z,0.00
2022-09-10T02:55:38.391Z,0.00
2022-09-10T02:56:38.404Z,0.00
2022-09-10T02:57:38.369Z,0.00
2022-09-10T02:58:38.473Z,0.00
2022-09-10T02:59:38.361Z,0.00
2022-09-10T03:00:38.348Z,0.00
2022-09-10T03:01:38.425Z,0.00
2022-09-10T03:02:38.332Z,0.00
2022-09-10T03:03:38.323Z,0.00
2022-09-10T03:04:38.327Z,0.00
2022-09-10T03:05:38.312Z,0.00
2022-09-10T03:06:38.384Z,0.00
2022-09-10T03:07:38.293Z,0.00
2022-09-10T03:08:38.286Z,0.00
2022-09-10T03:09:38.283Z,0.00
2022-09-10T03:10:38.267Z,0.00
2022-09-10T03:11:38.291Z,0.00
2022-09-10T03:12:38.292Z,0.00
2022-09-10T03:13:38.251Z,0.00
2022-09-10T03:14:38.241Z,0.00
2022-09-10T03:15:38.243Z,0.00
2022-09-10T03:16:38.311Z,0.00
2022-09-10T03:17:38.216Z,0.00
2022-09-10T03:18:38.358Z,0.00
2022-09-10T03:19:38.201Z,0.00
2022-09-10T03:20:38.199Z,0.00
2022-09-10T03:21:38.215Z,0.00
2022-09-10T03:22:38.175Z,0.00
2022-09-10T03:23:38.171Z,0.00
2022-09-10T03:24:38.157Z,0.00
2022-09-10T03:25:38.151Z,0.00
2022-09-10T03:26:38.163Z,0.00
2022-09-10T03:27:38.148Z,0.00
2022-09-10T03:28:38.150Z,0.00
2022-09-10T03:29:38.117Z,0.00
2022-09-10T03:30:38.114Z,0.00
2022-09-10T03:31:38.156Z,0.00
2022-09-10T03:32:38.097Z,0.00
2022-09-10T03:33:38.086Z,0.00
2022-09-10T03:34:38.066Z,0.00
2022-09-10T03:35:39.094Z,0.00
2022-09-10T03:36:38.053Z,0.00
2022-09-10T03:37:38.046Z,0.00
2022-09-10T03:38:38.041Z,0.00
2022-09-10T03:39:38.068Z,0.00
2022-09-10T03:40:38.074Z,0.00
2022-09-10T03:41:38.018Z,0.00
2022-09-10T03:42:38.012Z,4.00
2022-09-10T03:43:38.008Z,0.00
2022-09-10T03:44:37.993Z,0.00
2022-09-10T03:45:38.152Z,0.00
2022-09-10T03:46:37.976Z,0.00
2022-09-10T03:47:37.970Z,0.00
2022-09-10T03:48:38.097Z,0.00
2022-09-10T03:49:37.952Z,0.00
2022-09-10T03:50:37.968Z,0.00
2022-09-10T03:51:37.935Z,0.00
2022-09-10T03:52:37.932Z,0.00
2022-09-10T03:53:37.914Z,0.00
2022-09-10T03:54:37.912Z,0.00
2022-09-10T03:55:37.929Z,0.00
2022-09-10T03:56:37.892Z,0.00
2022-09-10T03:57:37.888Z,0.00
2022-09-10T03:58:37.884Z,0.00
2022-09-10T03:59:37.876Z,0.00
2022-09-10T04:00:37.894Z,0.00
2022-09-10T04:01:37.853Z,0.00
2022-09-10T04:02:37.858Z,4.00
2022-09-10T04:03:37.840Z,0.00
2022-09-10T04:04:37.828Z,0.00
2022-09-10T04:05:37.852Z,0.00
2022-09-10T04:06:37.818Z,0.00
2022-09-10T04:07:37.807Z,0.00
2022-09-10T04:08:37.803Z,0.00
2022-09-10T04:09:37.794Z,0.00
2022-09-10T04:10:37.823Z,0.00
2022-09-10T04:11:37.784Z,0.00
2022-09-10T04:12:37.782Z,4.00
2022-09-10T04:13:37.771Z,4.00
2022-09-10T04:14:37.758Z,4.00
2022-09-10T04:15:37.774Z,4.00
2022-09-10T04:16:37.797Z,4.00
2022-09-10T04:17:37.737Z,4.00
2022-09-10T04:18:37.726Z,4.00
2022-09-10T04:19:37.721Z,4.00
2022-09-10T04:20:37.739Z,8.00
2022-09-10T04:21:37.706Z,4.00
2022-09-10T04:22:37.723Z,8.00
2022-09-10T04:23:37.694Z,8.00
2022-09-10T04:24:37.679Z,12.00
2022-09-10T04:25:38.704Z,12.00
2022-09-10T04:26:37.669Z,20.00
2022-09-10T04:27:37.655Z,24.00
2022-09-10T04:28:37.645Z,28.00
2022-09-10T04:29:37.642Z,32.00
2022-09-10T04:30:37.632Z,40.00
2022-09-10T04:31:37.699Z,44.00
2022-09-10T04:32:37.613Z,44.00
2022-09-10T04:33:37.606Z,52.00
2022-09-10T04:34:37.601Z,56.00
2022-09-10T04:35:37.622Z,64.00
2022-09-10T04:36:37.585Z,76.00
2022-09-10T04:37:37.584Z,92.00
2022-09-10T04:38:37.657Z,112.00
2022-09-10T04:39:37.603Z,140.00
2022-09-10T04:40:37.587Z,156.00
2022-09-10T04:41:37.553Z,176.00
2022-09-10T04:42:37.556Z,192.00
2022-09-10T04:43:37.538Z,208.00
2022-09-10T04:44:37.528Z,228.00
2022-09-10T04:45:37.572Z,240.00
2022-09-10T04:46:37.524Z,232.00
2022-09-10T04:47:37.511Z,224.00
2022-09-10T04:48:37.524Z,208.00
2022-09-10T04:49:37.487Z,208.00
2022-09-10T04:50:37.508Z,208.00
2022-09-10T04:51:37.473Z,216.00
2022-09-10T04:52:37.473Z,240.00
2022-09-10T04:53:37.460Z,276.00
2022-09-10T04:54:37.475Z,308.00
2022-09-10T04:55:37.465Z,332.00
2022-09-10T04:56:37.433Z,384.00
2022-09-10T04:57:37.418Z,460.00
2022-09-10T04:58:39.350Z,552.00
2022-09-10T04:59:38.412Z,640.00
2022-09-10T05:00:37.438Z,704.00
2022-09-10T05:01:37.396Z,744.00
2022-09-10T05:02:37.386Z,776.00
2022-09-10T05:03:38.382Z,792.00
2022-09-10T05:04:37.396Z,804.00
2022-09-10T05:05:37.397Z,828.00
2022-09-10T05:06:37.357Z,864.00
2022-09-10T05:07:37.352Z,916.00
2022-09-10T05:08:37.406Z,980.00
2022-09-10T05:09:37.341Z,1028.00
2022-09-10T05:10:37.329Z,1084.00
2022-09-10T05:11:37.344Z,1160.00
2022-09-10T05:12:37.312Z,1264.00
2022-09-10T05:13:37.315Z,1376.00
2022-09-10T05:14:37.299Z,1628.00
2022-09-10T05:15:37.317Z,2220.00
2022-09-10T05:16:37.370Z,2632.00
2022-09-10T05:17:37.273Z,4392.00
2022-09-10T05:18:37.320Z,6308.00
2022-09-10T05:19:37.258Z,7172.00
2022-09-10T05:20:37.270Z,6396.00
2022-09-10T05:21:37.250Z,11056.00
2022-09-10T05:22:40.512Z,16096.00
2022-09-10T05:23:38.220Z,18208.00
2022-09-10T05:24:37.253Z,16864.00
2022-09-10T05:25:37.227Z,15040.00
2022-09-10T05:26:37.202Z,10904.00
2022-09-10T05:27:37.189Z,7632.00
2022-09-10T05:28:37.236Z,2928.00
2022-09-10T05:29:37.175Z,2836.00
2022-09-10T05:30:37.193Z,3144.00
2022-09-10T05:31:37.197Z,3720.00
2022-09-10T05:32:37.153Z,12704.00
2022-09-10T05:33:37.142Z,20832.00
2022-09-10T05:34:37.138Z,6332.00
2022-09-10T05:35:37.161Z,2824.00
2022-09-10T05:36:37.117Z,2620.00
2022-09-10T05:37:37.121Z,2432.00
2022-09-10T05:38:39.984Z,2304.00
2022-09-10T05:39:38.107Z,2224.00
2022-09-10T05:40:37.156Z,2112.00
2022-09-10T05:41:37.091Z,2028.00
2022-09-10T05:42:37.078Z,1992.00
2022-09-10T05:43:37.067Z,2128.00
2022-09-10T05:44:37.057Z,2232.00
2022-09-10T05:45:37.097Z,2304.00
2022-09-10T05:46:37.044Z,2332.00
2022-09-10T05:47:37.036Z,2460.00
2022-09-10T05:48:41.386Z,2820.00
2022-09-10T05:49:38.018Z,3252.00
2022-09-10T05:50:37.032Z,3620.00
2022-09-10T05:51:37.003Z,3960.00
2022-09-10T05:52:36.997Z,4172.00
2022-09-10T05:53:36.986Z,4272.00
2022-09-10T05:54:36.977Z,4356.00
2022-09-10T05:55:37.000Z,4396.00
2022-09-10T05:56:36.959Z,4340.00
2022-09-10T05:57:36.959Z,4388.00
2022-09-10T05:58:36.964Z,4408.00
2022-09-10T05:59:36.936Z,4304.00
2022-09-10T06:00:36.960Z,4068.00
2022-09-10T06:01:36.928Z,3896.00
2022-09-10T06:02:37.081Z,3896.00
2022-09-10T06:03:36.916Z,3728.00
2022-09-10T06:04:36.906Z,3844.00
2022-09-10T06:05:36.916Z,4148.00
2022-09-10T06:06:36.881Z,4384.00
2022-09-10T06:07:36.923Z,4108.00
2022-09-10T06:08:37.011Z,4016.00
2022-09-10T06:09:36.862Z,4088.00
2022-09-10T06:10:36.876Z,4348.00
2022-09-10T06:11:36.846Z,4444.00
2022-09-10T06:12:36.838Z,4420.00
2022-09-10T06:13:36.829Z,4444.00
2022-09-10T06:14:36.818Z,4464.00
2022-09-10T06:15:36.838Z,4476.00
2022-09-10T06:16:36.854Z,4456.00
2022-09-10T06:17:36.796Z,4484.00
2022-09-10T06:18:36.827Z,4516.00
2022-09-10T06:19:36.776Z,4520.00
2022-09-10T06:20:36.794Z,4492.00
2022-09-10T06:21:36.767Z,4452.00
2022-09-10T06:22:36.758Z,4368.00
2022-09-10T06:23:36.740Z,4296.00
2022-09-10T06:24:36.737Z,4192.00
2022-09-10T06:25:36.758Z,4180.00
2022-09-10T06:26:36.723Z,4216.00
2022-09-10T06:27:36.714Z,4168.00
2022-09-10T06:28:36.824Z,4188.00
2022-09-10T06:29:36.715Z,4196.00
2022-09-10T06:30:36.755Z,4216.00
2022-09-10T06:31:36.678Z,4208.00
2022-09-10T06:32:36.677Z,4156.00
2022-09-10T06:33:36.670Z,4096.00
2022-09-10T06:34:36.663Z,4052.00
2022-09-10T06:35:36.677Z,3980.00
2022-09-10T06:36:36.644Z,3880.00
2022-09-10T06:37:36.637Z,3784.00
2022-09-10T06:38:36.631Z,3664.00
2022-09-10T06:39:36.647Z,3548.00
2022-09-10T06:40:36.652Z,3432.00
2022-09-10T06:41:36.607Z,3348.00
2022-09-10T06:42:36.608Z,3296.00
2022-09-10T06:43:36.684Z,3328.00
2022-09-10T06:44:36.588Z,3416.00
2022-09-10T06:45:36.632Z,3536.00
2022-09-10T06:47:25.794Z,3724.00
2022-09-10T06:48:19.134Z,3888.00
2022-09-10T06:48:49.604Z,4048.00
2022-09-10T06:49:38.541Z,4156.00
2022-09-10T06:50:36.558Z,4324.00
2022-09-10T06:51:36.535Z,4840.00
2022-09-10T06:52:36.522Z,5048.00
2022-09-10T06:53:36.514Z,5028.00
2022-09-10T06:54:36.508Z,4864.00
2022-09-10T06:55:36.527Z,4212.00
2022-09-10T06:56:36.488Z,4020.00
2022-09-10T06:57:36.476Z,3748.00
2022-09-10T06:58:36.506Z,3516.00
2022-09-10T06:59:36.461Z,3552.00
2022-09-10T07:00:36.479Z,3300.00
2022-09-10T07:01:36.476Z,3172.00
2022-09-10T07:02:36.437Z,3352.00
2022-09-10T07:03:36.430Z,3436.00
2022-09-10T07:04:36.419Z,3492.00
2022-09-10T07:05:36.441Z,3716.00
2022-09-10T07:06:36.414Z,3720.00
2022-09-10T07:07:36.397Z,3752.00
2022-09-10T07:08:36.443Z,3780.00
2022-09-10T07:09:36.380Z,3620.00
2022-09-10T07:10:36.394Z,3540.00
2022-09-10T07:11:41.222Z,3652.00
2022-09-10T07:12:38.351Z,3808.00
2022-09-10T07:13:36.347Z,3856.00
2022-09-10T07:14:36.338Z,3892.00
2022-09-10T07:15:36.411Z,3832.00
2022-09-10T07:16:36.319Z,3936.00
2022-09-10T07:17:36.313Z,3872.00
2022-09-10T07:18:36.363Z,3788.00
2022-09-10T07:19:36.309Z,3788.00
2022-09-10T07:20:36.317Z,3872.00
2022-09-10T07:21:36.311Z,3912.00
2022-09-10T07:22:36.273Z,3892.00
2022-09-10T07:23:36.266Z,3824.00
2022-09-10T07:24:36.258Z,3864.00
2022-09-10T07:25:36.278Z,3700.00
2022-09-10T07:26:36.256Z,3656.00
2022-09-10T07:27:36.232Z,3532.00
2022-09-10T07:28:36.333Z,3752.00
2022-09-10T07:29:36.220Z,3868.00
2022-09-10T07:30:36.250Z,3920.00
2022-09-10T07:31:36.244Z,4160.00
2022-09-10T07:32:36.193Z,4620.00
2022-09-10T07:33:36.186Z,5144.00
2022-09-10T07:34:36.179Z,5476.00
2022-09-10T07:35:36.196Z,5468.00
2022-09-10T07:36:36.166Z,5524.00
2022-09-10T07:37:36.163Z,5824.00
2022-09-10T07:38:36.167Z,6176.00
2022-09-10T07:39:36.202Z,6472.00
2022-09-10T07:40:36.162Z,6444.00
2022-09-10T07:41:36.129Z,6788.00
2022-09-10T07:42:36.121Z,6576.00
2022-09-10T07:43:36.111Z,6124.00
2022-09-10T07:44:36.100Z,6312.00
2022-09-10T07:45:36.152Z,6544.00
2022-09-10T07:46:36.090Z,6848.00
2022-09-10T07:47:36.080Z,6700.00
2022-09-10T07:48:36.199Z,6904.00
2022-09-10T07:49:36.066Z,7108.00
2022-09-10T07:50:36.083Z,7076.00
2022-09-10T07:51:36.057Z,7228.00
2022-09-10T07:52:36.039Z,7092.00
2022-09-10T07:53:36.030Z,7016.00
2022-09-10T07:54:36.029Z,6420.00
2022-09-10T07:55:37.043Z,5672.00
2022-09-10T07:56:36.028Z,5008.00
2022-09-10T07:57:35.998Z,4512.00
2022-09-10T07:58:36.211Z,4008.00
2022-09-10T07:59:35.981Z,3548.00
2022-09-10T08:00:36.008Z,3252.00
2022-09-10T08:01:35.977Z,3228.00
2022-09-10T08:02:36.010Z,3320.00
2022-09-10T08:03:35.953Z,3520.00
2022-09-10T08:04:37.144Z,3908.00
2022-09-10T08:05:36.963Z,4116.00
2022-09-10T08:06:35.929Z,3788.00
2022-09-10T08:07:35.911Z,3624.00
2022-09-10T08:08:36.913Z,3392.00
2022-09-10T08:09:35.927Z,3188.00
2022-09-10T08:10:35.926Z,2988.00
2022-09-10T08:11:35.897Z,3028.00
2022-09-10T08:12:35.922Z,3036.00
2022-09-10T08:13:35.875Z,3116.00
2022-09-10T08:14:35.856Z,3312.00
2022-09-10T08:15:36.902Z,3208.00
2022-09-10T08:16:35.851Z,3016.00
2022-09-10T08:17:35.845Z,2844.00
2022-09-10T08:18:35.876Z,2884.00
2022-09-10T08:19:35.826Z,3184.00
2022-09-10T08:20:35.841Z,3556.00
2022-09-10T08:21:35.807Z,3868.00
2022-09-10T08:22:35.800Z,4396.00
2022-09-10T08:23:35.802Z,4448.00
2022-09-10T08:24:35.786Z,4148.00
2022-09-10T08:25:35.801Z,3816.00
2022-09-10T08:26:35.765Z,3868.00
2022-09-10T08:27:35.756Z,3888.00
2022-09-10T08:28:35.802Z,3996.00
2022-09-10T08:29:35.740Z,4104.00
2022-09-10T08:30:35.768Z,4088.00
2022-09-10T08:31:35.725Z,4080.00
2022-09-10T08:32:35.722Z,4080.00
2022-09-10T08:33:35.710Z,4068.00
2022-09-10T08:34:35.700Z,4060.00
2022-09-10T08:35:35.723Z,4344.00
2022-09-10T08:36:35.685Z,4648.00
2022-09-10T08:37:35.681Z,4588.00
2022-09-10T08:38:35.719Z,4708.00
2022-09-10T08:39:35.676Z,5160.00
2022-09-10T08:40:35.656Z,5540.00
2022-09-10T08:41:35.694Z,5468.00
2022-09-10T08:42:35.642Z,5660.00
2022-09-10T08:43:35.634Z,6132.00
2022-09-10T08:44:35.622Z,6752.00
2022-09-10T08:45:35.649Z,7008.00
2022-09-10T08:46:35.636Z,6600.00
2022-09-10T08:47:35.603Z,6264.00
2022-09-10T08:48:35.678Z,6112.00
2022-09-10T08:49:35.587Z,6300.00
2022-09-10T08:50:35.580Z,6592.00
2022-09-10T08:51:35.591Z,6268.00
2022-09-10T08:52:35.562Z,6096.00
2022-09-10T08:53:35.554Z,6284.00
2022-09-10T08:54:35.549Z,6176.00
2022-09-10T08:55:35.539Z,5560.00
2022-09-10T08:56:35.568Z,5576.00
2022-09-10T08:57:36.523Z,5412.00
2022-09-10T08:58:35.517Z,5516.00
2022-09-10T08:59:35.517Z,5688.00
2022-09-10T09:00:35.493Z,5528.00
2022-09-10T09:01:35.549Z,5400.00
2022-09-10T09:02:48.892Z,5552.00
2022-09-10T09:03:37.473Z,5876.00
2022-09-10T09:04:35.473Z,5884.00
2022-09-10T09:05:35.460Z,5412.00
2022-09-10T09:06:35.471Z,5108.00
2022-09-10T09:07:35.445Z,5012.00
2022-09-10T09:08:35.438Z,5004.00
2022-09-10T09:09:35.433Z,5348.00
2022-09-10T09:10:35.447Z,5312.00
2022-09-10T09:11:36.411Z,5504.00
2022-09-10T09:12:35.409Z,5600.00
2022-09-10T09:13:35.406Z,5784.00
2022-09-10T09:14:35.398Z,5852.00
2022-09-10T09:15:35.440Z,6072.00
2022-09-10T09:16:35.379Z,7188.00
2022-09-10T09:17:35.369Z,7440.00
2022-09-10T09:18:35.364Z,7648.00
2022-09-10T09:19:35.354Z,7988.00
2022-09-10T09:20:35.370Z,8196.00
2022-09-10T09:21:35.335Z,8132.00
2022-09-10T09:22:39.796Z,8048.00
2022-09-10T09:23:36.320Z,8096.00
2022-09-10T09:24:35.318Z,8036.00
2022-09-10T09:25:35.338Z,7700.00
2022-09-10T09:26:35.298Z,7260.00
2022-09-10T09:27:35.288Z,6796.00
2022-09-10T09:28:35.281Z,6736.00
2022-09-10T09:29:35.277Z,6988.00
2022-09-10T09:30:35.297Z,7112.00
2022-09-10T09:31:35.286Z,6680.00
2022-09-10T09:32:35.247Z,6308.00
2022-09-10T09:33:35.237Z,6000.00
2022-09-10T09:34:35.229Z,5976.00
2022-09-10T09:35:35.219Z,6464.00
2022-09-10T09:36:35.236Z,7124.00
2022-09-10T09:37:35.205Z,7936.00
2022-09-10T09:38:35.300Z,9152.00
2022-09-10T09:39:35.233Z,10312.00
2022-09-10T09:40:35.187Z,11240.00
2022-09-10T09:41:35.206Z,12236.00
2022-09-10T09:42:35.170Z,12856.00
2022-09-10T09:43:35.155Z,13284.00
2022-09-10T09:44:35.151Z,13536.00
2022-09-10T09:45:35.214Z,14004.00
2022-09-10T09:46:35.165Z,14260.00
2022-09-10T09:47:35.128Z,14104.00
2022-09-10T09:48:35.122Z,13520.00
2022-09-10T09:49:35.109Z,13140.00
2022-09-10T09:50:35.107Z,13716.00
2022-09-10T09:51:35.120Z,13488.00
2022-09-10T09:52:35.090Z,13160.00
2022-09-10T09:53:35.122Z,12948.00
2022-09-10T09:55:03.254Z,12804.00
2022-09-10T09:55:37.122Z,12152.00
2022-09-10T09:56:35.100Z,11624.00
2022-09-10T09:57:35.051Z,11604.00
2022-09-10T09:58:35.046Z,11480.00
2022-09-10T09:59:35.050Z,11396.00
2022-09-10T10:00:35.032Z,11184.00
2022-09-10T10:01:35.110Z,11592.00
2022-09-10T10:02:35.075Z,12424.00
2022-09-10T10:03:35.007Z,13828.00
2022-09-10T10:04:37.047Z,14440.00
2022-09-10T10:05:35.989Z,14840.00
2022-09-10T10:06:35.007Z,15532.00
2022-09-10T10:07:34.995Z,15200.00
2022-09-10T10:08:34.973Z,16052.00
2022-09-10T10:09:34.964Z,18208.00
2022-09-10T10:10:34.951Z,18208.00
2022-09-10T10:11:34.969Z,16036.00
2022-09-10T10:12:34.937Z,16576.00
2022-09-10T10:13:34.929Z,16032.00
2022-09-10T10:14:34.926Z,16608.00
2022-09-10T10:15:34.977Z,16768.00
2022-09-10T10:16:34.929Z,16512.00
2022-09-10T10:17:34.895Z,17120.00
2022-09-10T10:18:34.890Z,16960.00
2022-09-10T10:19:34.885Z,15180.00
2022-09-10T10:20:34.877Z,15268.00
2022-09-10T10:21:34.896Z,14704.00
2022-09-10T10:22:34.891Z,14200.00
2022-09-10T10:23:34.854Z,13520.00
2022-09-10T10:24:34.844Z,12832.00
2022-09-10T10:25:35.038Z,12288.00
2022-09-10T10:26:34.910Z,12424.00
2022-09-10T10:27:34.821Z,12856.00
2022-09-10T10:28:34.818Z,13480.00
2022-09-10T10:29:34.825Z,14080.00
2022-09-10T10:30:34.798Z,13488.00
2022-09-10T10:31:34.832Z,15440.00
2022-09-10T10:32:34.781Z,16416.00
2022-09-10T10:33:34.876Z,15340.00
2022-09-10T10:34:34.806Z,14516.00
2022-09-10T10:35:34.754Z,13144.00
2022-09-10T10:36:34.777Z,12492.00
2022-09-10T10:37:34.744Z,12040.00
2022-09-10T10:38:34.756Z,11304.00
2022-09-10T10:39:34.777Z,10168.00
2022-09-10T10:40:34.713Z,9296.00
2022-09-10T10:41:34.756Z,9364.00
2022-09-10T10:42:34.760Z,9276.00
2022-09-10T10:43:34.691Z,9268.00
2022-09-10T10:44:34.691Z,9232.00
2022-09-10T10:45:34.676Z,9260.00
2022-09-10T10:46:34.721Z,9460.00
2022-09-10T10:47:34.657Z,9664.00
2022-09-10T10:48:34.652Z,8920.00
2022-09-10T10:49:34.647Z,8148.00
2022-09-10T10:50:34.639Z,7932.00
2022-09-10T10:51:34.658Z,7908.00
2022-09-10T10:52:34.638Z,7580.00
2022-09-10T10:53:34.617Z,7612.00
2022-09-10T10:54:34.617Z,7892.00
2022-09-10T10:55:34.597Z,7892.00
2022-09-10T10:56:35.046Z,8228.00
2022-09-10T10:57:34.586Z,8596.00
2022-09-10T10:58:34.574Z,9004.00
2022-09-10T10:59:34.567Z,9052.00
2022-09-10T11:00:34.572Z,9036.00
2022-09-10T11:01:34.607Z,8832.00
2022-09-10T11:02:34.575Z,8416.00
2022-09-10T11:03:34.538Z,7848.00
2022-09-10T11:04:34.566Z,7236.00
2022-09-10T11:05:34.526Z,6852.00
2022-09-10T11:06:34.544Z,6640.00
2022-09-10T11:07:34.567Z,6712.00
2022-09-10T11:08:34.523Z,7572.00
2022-09-10T11:09:34.493Z,7176.00
2022-09-10T11:10:34.491Z,7504.00
2022-09-10T11:11:34.500Z,8104.00
2022-09-10T11:12:34.472Z,8588.00
2022-09-10T11:13:34.464Z,10524.00
2022-09-10T11:14:34.459Z,9592.00
2022-09-10T11:15:34.521Z,9952.00
2022-09-10T11:16:37.396Z,10224.00
2022-09-10T11:17:35.434Z,10272.00
2022-09-10T11:18:34.426Z,10380.00
2022-09-10T11:19:34.470Z,10096.00
2022-09-10T11:20:34.416Z,9468.00
2022-09-10T11:21:34.427Z,9184.00
2022-09-10T11:22:34.397Z,9228.00
2022-09-10T11:23:34.392Z,9452.00
2022-09-10T11:24:34.381Z,9572.00
2022-09-10T11:25:34.391Z,9700.00
2022-09-10T11:26:34.391Z,9724.00
2022-09-10T11:27:34.367Z,9748.00
2022-09-10T11:28:34.357Z,10000.00
2022-09-10T11:29:34.342Z,10360.00
2022-09-10T11:30:34.549Z,10476.00
2022-09-10T11:31:34.359Z,10448.00
2022-09-10T11:32:34.323Z,10580.00
2022-09-10T11:33:34.310Z,10712.00
2022-09-10T11:34:34.306Z,10724.00
2022-09-10T11:35:34.293Z,11168.00
2022-09-10T11:36:34.309Z,12980.00
2022-09-10T11:37:34.307Z,13664.00
2022-09-10T11:38:34.258Z,13820.00
2022-09-10T11:39:35.322Z,13896.00
2022-09-10T11:40:34.259Z,14040.00
2022-09-10T11:41:34.274Z,13792.00
2022-09-10T11:42:34.242Z,13920.00
2022-09-10T11:43:34.232Z,13804.00
2022-09-10T11:44:36.474Z,14300.00
2022-09-10T11:45:35.262Z,14196.00
2022-09-10T11:46:34.351Z,14404.00
2022-09-10T11:47:34.205Z,14584.00
2022-09-10T11:48:34.200Z,17504.00
2022-09-10T11:49:34.190Z,18816.00
2022-09-10T11:50:35.004Z,18720.00
2022-09-10T11:51:35.199Z,18688.00
2022-09-10T11:52:34.171Z,18336.00
2022-09-10T11:53:34.183Z,17472.00
2022-09-10T11:54:34.145Z,15724.00
2022-09-10T11:55:34.141Z,17472.00
2022-09-10T11:56:34.215Z,14408.00
2022-09-10T11:57:34.135Z,15824.00
2022-09-10T11:58:34.173Z,15872.00
2022-09-10T11:59:34.208Z,15528.00
2022-09-10T12:00:34.104Z,14696.00
2022-09-10T12:01:34.137Z,14316.00
2022-09-10T12:02:34.085Z,14456.00
2022-09-10T12:03:34.126Z,9828.00
2022-09-10T12:04:36.888Z,9008.00
2022-09-10T12:05:36.058Z,8728.00
2022-09-10T12:06:34.377Z,8516.00
2022-09-10T12:07:34.051Z,8492.00
2022-09-10T12:08:34.038Z,8640.00
2022-09-10T12:09:34.052Z,8772.00
2022-09-10T12:10:34.033Z,9144.00
2022-09-10T12:11:34.059Z,9880.00
2022-09-10T12:12:34.009Z,10004.00
2022-09-10T12:13:34.003Z,9120.00
2022-09-10T12:14:33.995Z,8688.00
2022-09-10T12:15:33.986Z,8676.00
2022-09-10T12:16:34.005Z,9776.00
2022-09-10T12:17:33.982Z,9968.00
2022-09-10T12:18:33.961Z,9744.00
2022-09-10T12:19:33.953Z,9320.00
2022-09-10T12:20:33.948Z,9184.00
2022-09-10T12:21:33.969Z,10008.00
2022-09-10T12:22:33.933Z,10584.00
2022-09-10T12:23:33.927Z,11616.00
2022-09-10T12:24:33.916Z,10524.00
2022-09-10T12:25:34.902Z,11336.00
2022-09-10T12:26:34.930Z,10652.00
2022-09-10T12:27:33.904Z,11944.00
2022-09-10T12:28:33.899Z,10784.00